createdAt,value
2018-12-06T00:01:37.152Z,17.20
2018-12-06T00:04:06.185Z,17.20
2018-12-06T00:06:35.175Z,17.30
2018-12-06T00:09:06.376Z,17.20
2018-12-06T00:11:36.585Z,17.20
2018-12-06T00:14:05.604Z,17.20
2018-12-06T00:16:34.615Z,17.20
2018-12-06T00:19:09.935Z,17.20
2018-12-06T00:21:39.071Z,17.20
2018-12-06T00:24:08.183Z,17.20
2018-12-06T00:26:37.807Z,17.20
2018-12-06T00:29:07.318Z,17.20
2018-12-06T00:31:36.230Z,17.80
2018-12-06T00:34:05.356Z,17.10
2018-12-06T00:36:34.670Z,17.10
2018-12-06T00:39:04.437Z,17.00
2018-12-06T00:41:33.508Z,17.10
2018-12-06T00:44:03.142Z,17.70
2018-12-06T00:46:32.252Z,17.00
2018-12-06T00:49:01.365Z,17.20
2018-12-06T00:51:31.555Z,17.00
2018-12-06T00:54:01.013Z,17.00
2018-12-06T00:56:30.016Z,17.10
2018-12-06T00:58:59.023Z,16.90
2018-12-06T01:01:29.168Z,17.00
2018-12-06T01:03:58.823Z,17.00
2018-12-06T01:06:28.524Z,16.90
2018-12-06T01:08:57.631Z,16.90
2018-12-06T01:11:27.664Z,16.90
2018-12-06T01:13:57.451Z,16.90
2018-12-06T01:16:27.448Z,16.90
2018-12-06T01:18:59.144Z,16.90
2018-12-06T01:21:28.219Z,16.90
2018-12-06T01:23:57.831Z,16.90
2018-12-06T01:26:26.948Z,16.80
2018-12-06T01:28:55.971Z,16.80
2018-12-06T01:31:28.809Z,16.80
2018-12-06T01:33:59.307Z,16.70
2018-12-06T01:36:28.324Z,16.80
2018-12-06T01:38:57.483Z,16.60
2018-12-06T01:41:26.423Z,16.70
2018-12-06T01:43:55.781Z,16.70
2018-12-06T01:46:25.485Z,16.70
2018-12-06T01:48:55.310Z,16.70
2018-12-06T01:51:24.316Z,16.60
2018-12-06T01:53:53.331Z,16.60
2018-12-06T01:56:23.541Z,16.60
2018-12-06T01:58:52.581Z,16.60
2018-12-06T02:01:21.831Z,16.60
2018-12-06T02:03:51.020Z,16.60
2018-12-06T02:06:20.811Z,16.50
2018-12-06T02:08:49.856Z,16.60
2018-12-06T02:11:19.785Z,16.60
2018-12-06T02:13:53.307Z,16.60
2018-12-06T02:16:22.953Z,16.60
2018-12-06T02:18:53.266Z,16.60
2018-12-06T02:21:22.233Z,16.60
2018-12-06T02:23:51.184Z,16.50
2018-12-06T02:26:20.196Z,16.60
2018-12-06T02:28:49.852Z,16.50
2018-12-06T02:31:18.832Z,16.60
2018-12-06T02:33:47.939Z,16.60
2018-12-06T02:36:16.956Z,16.50
2018-12-06T02:38:47.486Z,16.50
2018-12-06T02:41:18.425Z,16.50
2018-12-06T02:43:50.747Z,16.50
2018-12-06T02:46:20.509Z,16.40
2018-12-06T02:48:49.590Z,16.60
2018-12-06T02:51:18.591Z,16.40
2018-12-06T02:53:48.615Z,16.40
2018-12-06T02:56:17.744Z,16.40
2018-12-06T02:58:46.958Z,16.40
2018-12-06T03:01:16.581Z,16.30
2018-12-06T03:03:46.218Z,16.30
2018-12-06T03:06:15.228Z,16.40
2018-12-06T03:08:45.430Z,16.30
2018-12-06T03:11:14.787Z,16.40
2018-12-06T03:13:44.865Z,16.30
2018-12-06T03:16:14.655Z,16.30
2018-12-06T03:18:45.566Z,16.30
2018-12-06T03:21:15.319Z,16.30
2018-12-06T03:23:45.272Z,16.30
2018-12-06T03:26:14.364Z,16.30
2018-12-06T03:28:44.698Z,16.40
2018-12-06T03:31:13.716Z,16.30
2018-12-06T03:33:42.718Z,16.10
2018-12-06T03:36:12.171Z,16.40
2018-12-06T03:38:41.257Z,16.40
2018-12-06T03:41:10.276Z,16.40
2018-12-06T03:43:40.089Z,16.40
2018-12-06T03:46:09.050Z,16.40
2018-12-06T03:48:38.139Z,16.40
2018-12-06T03:51:07.217Z,16.40
2018-12-06T03:53:36.337Z,16.40
2018-12-06T03:56:05.453Z,16.30
2018-12-06T03:58:34.413Z,16.30
2018-12-06T04:01:03.380Z,16.40
2018-12-06T04:03:32.471Z,16.50
2018-12-06T04:06:02.101Z,16.60
2018-12-06T04:08:31.963Z,16.50
2018-12-06T04:11:00.948Z,16.40
2018-12-06T04:13:30.065Z,16.40
2018-12-06T04:16:00.403Z,16.40
2018-12-06T04:18:29.512Z,16.60
2018-12-06T04:20:58.502Z,16.60
2018-12-06T04:23:27.534Z,16.50
2018-12-06T04:25:56.665Z,16.20
2018-12-06T04:28:28.297Z,16.10
2018-12-06T04:30:57.083Z,15.80
2018-12-06T04:33:26.948Z,15.70
2018-12-06T04:35:55.966Z,15.70
2018-12-06T04:38:25.079Z,15.70
2018-12-06T04:40:55.840Z,15.70
2018-12-06T04:43:25.018Z,16.20
2018-12-06T04:45:54.078Z,16.80
2018-12-06T04:48:23.942Z,16.70
2018-12-06T04:50:53.004Z,16.60
2018-12-06T04:53:22.824Z,16.60
2018-12-06T04:55:51.916Z,16.60
2018-12-06T04:58:22.127Z,16.60
2018-12-06T05:00:51.090Z,16.60
2018-12-06T05:03:21.244Z,16.40
2018-12-06T05:05:50.234Z,16.30
2018-12-06T05:08:19.457Z,16.30
2018-12-06T05:10:49.087Z,16.60
2018-12-06T05:13:17.992Z,16.60
2018-12-06T05:15:47.040Z,16.50
2018-12-06T05:18:16.186Z,16.80
2018-12-06T05:20:46.055Z,16.80
2018-12-06T05:23:15.877Z,16.50
2018-12-06T05:25:45.714Z,16.60
2018-12-06T05:28:15.636Z,16.70
2018-12-06T05:30:47.471Z,16.70
2018-12-06T05:33:16.432Z,16.80
2018-12-06T05:35:46.161Z,16.80
2018-12-06T05:38:15.265Z,16.80
2018-12-06T05:40:44.377Z,16.90
2018-12-06T05:43:14.157Z,16.90
2018-12-06T05:45:46.169Z,16.90
2018-12-06T05:48:15.508Z,17.50
2018-12-06T05:50:44.629Z,16.90
2018-12-06T05:53:15.050Z,17.00
2018-12-06T05:55:45.092Z,17.10
2018-12-06T05:58:14.955Z,17.10
2018-12-06T06:00:48.646Z,17.10
2018-12-06T06:03:17.782Z,17.10
2018-12-06T06:05:46.901Z,17.10
2018-12-06T06:08:15.873Z,17.10
2018-12-06T06:10:45.349Z,17.10
2018-12-06T06:13:14.309Z,17.10
2018-12-06T06:15:43.314Z,17.10
2018-12-06T06:18:12.443Z,17.10
2018-12-06T06:20:42.317Z,17.10
2018-12-06T06:23:11.956Z,17.30
2018-12-06T06:25:41.482Z,17.30
2018-12-06T06:28:12.171Z,17.10
2018-12-06T06:30:41.054Z,17.00
2018-12-06T06:33:10.066Z,17.00
2018-12-06T06:35:40.616Z,17.00
2018-12-06T06:38:09.636Z,17.00
2018-12-06T06:40:38.687Z,17.00
2018-12-06T06:43:07.871Z,17.00
2018-12-06T06:45:36.886Z,17.00
2018-12-06T06:48:05.882Z,17.00
2018-12-06T06:50:34.884Z,16.90
2018-12-06T06:53:04.316Z,16.90
2018-12-06T06:55:33.322Z,16.90
2018-12-06T06:58:02.434Z,16.80
2018-12-06T07:00:32.173Z,16.80
2018-12-06T07:03:01.264Z,16.80
2018-12-06T07:05:30.683Z,16.70
2018-12-06T07:07:59.809Z,16.80
2018-12-06T07:10:28.810Z,16.80
2018-12-06T07:12:57.717Z,16.80
2018-12-06T07:15:26.740Z,16.90
2018-12-06T07:17:55.638Z,16.70
2018-12-06T07:20:25.627Z,16.70
2018-12-06T07:22:54.584Z,16.70
2018-12-06T07:25:23.665Z,17.00
2018-12-06T07:27:52.808Z,16.40
2018-12-06T07:30:22.765Z,16.50
2018-12-06T07:32:52.050Z,16.50
2018-12-06T07:35:20.967Z,16.40
2018-12-06T07:37:53.250Z,16.60
2018-12-06T07:40:23.231Z,16.70
2018-12-06T07:42:53.007Z,16.70
2018-12-06T07:45:22.930Z,17.30
2018-12-06T07:47:53.009Z,16.70
2018-12-06T07:50:23.368Z,16.80
2018-12-06T07:52:53.049Z,16.80
2018-12-06T07:55:25.241Z,16.80
2018-12-06T07:57:56.914Z,16.80
2018-12-06T08:00:28.359Z,16.70
2018-12-06T08:03:07.614Z,16.70
2018-12-06T08:05:37.969Z,16.70
2018-12-06T08:08:06.926Z,16.70
2018-12-06T08:10:37.539Z,16.70
2018-12-06T08:13:06.566Z,16.70
2018-12-06T08:15:37.899Z,16.50
2018-12-06T08:18:07.368Z,17.00
2018-12-06T08:20:37.280Z,16.20
2018-12-06T08:23:06.184Z,16.20
2018-12-06T08:25:35.465Z,16.00
2018-12-06T08:28:11.115Z,15.90
2018-12-06T08:30:42.169Z,16.70
2018-12-06T08:33:12.610Z,16.20
2018-12-06T08:35:45.250Z,16.40
2018-12-06T08:38:15.402Z,16.40
2018-12-06T08:40:45.384Z,16.50
2018-12-06T08:43:16.174Z,16.40
2018-12-06T08:45:45.913Z,16.30
2018-12-06T08:48:15.722Z,16.20
2018-12-06T08:50:46.827Z,15.70
2018-12-06T08:53:16.687Z,16.20
2018-12-06T08:55:48.500Z,16.20
2018-12-06T08:58:20.293Z,16.10
2018-12-06T09:00:50.957Z,16.10
2018-12-06T09:03:20.093Z,16.20
2018-12-06T09:05:49.816Z,16.20
2018-12-06T09:08:19.094Z,16.00
2018-12-06T09:10:51.747Z,16.20
2018-12-06T09:13:21.317Z,16.20
2018-12-06T09:15:51.123Z,16.20
2018-12-06T09:18:20.376Z,16.20
2018-12-06T09:20:49.408Z,16.10
2018-12-06T09:23:19.956Z,16.10
2018-12-06T09:25:49.113Z,16.00
2018-12-06T09:28:19.816Z,16.10
2018-12-06T09:30:49.178Z,15.90
2018-12-06T09:33:18.252Z,15.90
2018-12-06T09:35:47.979Z,15.80
2018-12-06T09:38:20.103Z,15.80
2018-12-06T09:40:49.021Z,15.80
2018-12-06T09:43:18.084Z,16.50
2018-12-06T09:45:47.903Z,16.00
2018-12-06T09:48:18.259Z,16.00
2018-12-06T09:50:47.832Z,16.00
2018-12-06T09:53:18.093Z,16.10
2018-12-06T09:55:48.665Z,16.10
2018-12-06T09:58:21.375Z,16.20
2018-12-06T10:00:54.665Z,16.20
2018-12-06T10:03:24.536Z,16.20
2018-12-06T10:05:54.319Z,16.10
2018-12-06T10:08:24.259Z,16.10
2018-12-06T10:10:53.254Z,16.10
2018-12-06T10:13:23.168Z,16.10
2018-12-06T10:15:52.227Z,16.10
2018-12-06T10:18:21.101Z,16.10
2018-12-06T10:20:52.572Z,16.10
2018-12-06T10:23:21.585Z,16.20
2018-12-06T10:25:51.420Z,16.20
2018-12-06T10:28:21.175Z,16.20
2018-12-06T10:30:51.443Z,16.20
2018-12-06T10:33:21.692Z,16.20
2018-12-06T10:35:51.272Z,16.30
2018-12-06T10:38:20.363Z,16.20
2018-12-06T10:40:49.485Z,16.20
2018-12-06T10:43:18.612Z,16.10
2018-12-06T10:45:47.694Z,16.10
2018-12-06T10:48:17.737Z,16.10
2018-12-06T10:50:46.758Z,16.20
2018-12-06T10:53:15.747Z,16.10
2018-12-06T10:55:44.866Z,16.10
2018-12-06T10:58:13.838Z,16.10
2018-12-06T11:00:47.952Z,16.10
2018-12-06T11:03:24.961Z,16.10
2018-12-06T11:05:54.926Z,16.20
2018-12-06T11:08:24.149Z,16.10
2018-12-06T11:10:54.379Z,16.10
2018-12-06T11:13:26.452Z,16.10
2018-12-06T11:15:58.210Z,16.10
2018-12-06T11:18:28.361Z,16.10
2018-12-06T11:20:57.492Z,16.10
2018-12-06T11:23:27.056Z,16.10
2018-12-06T11:29:07.314Z,16.10
2018-12-06T11:31:37.235Z,16.10
2018-12-06T11:34:08.292Z,16.10
2018-12-06T11:36:37.395Z,16.10
2018-12-06T11:39:10.298Z,16.10
2018-12-06T11:41:43.201Z,16.10
2018-12-06T11:44:12.524Z,16.10
2018-12-06T11:46:43.320Z,16.10
2018-12-06T11:49:15.085Z,16.10
2018-12-06T11:51:44.996Z,16.20
2018-12-06T11:54:15.441Z,16.10
2018-12-06T11:56:44.402Z,16.10
2018-12-06T11:59:15.645Z,16.20
2018-12-06T12:01:45.194Z,16.20
2018-12-06T12:04:15.863Z,16.20
2018-12-06T12:06:45.819Z,16.20
2018-12-06T12:09:16.220Z,16.20
2018-12-06T12:11:46.067Z,16.20
2018-12-06T12:14:15.072Z,16.20
2018-12-06T12:16:45.284Z,16.20
2018-12-06T12:19:14.845Z,16.20
2018-12-06T12:21:44.592Z,16.30
2018-12-06T12:24:15.252Z,16.20
2018-12-06T12:26:44.323Z,16.30
2018-12-06T12:29:15.334Z,16.20
2018-12-06T12:31:45.857Z,16.20
2018-12-06T12:34:15.473Z,16.40
2018-12-06T12:36:44.987Z,16.20
2018-12-06T12:39:16.297Z,16.20
2018-12-06T12:41:45.237Z,16.30
2018-12-06T12:44:20.632Z,16.30
2018-12-06T12:46:49.883Z,16.30
2018-12-06T12:49:20.534Z,16.50
2018-12-06T12:51:51.306Z,16.50
2018-12-06T12:54:20.319Z,16.60
2018-12-06T12:56:54.083Z,16.50
2018-12-06T12:59:24.101Z,16.70
2018-12-06T13:01:53.101Z,16.90
2018-12-06T13:04:25.478Z,16.80
2018-12-06T13:06:54.480Z,16.90
2018-12-06T13:09:24.379Z,16.80
2018-12-06T13:11:55.587Z,17.00
2018-12-06T13:14:26.604Z,17.10
2018-12-06T13:16:55.540Z,17.00
2018-12-06T13:19:27.882Z,17.10
2018-12-06T13:21:57.765Z,17.10
2018-12-06T13:24:28.733Z,17.20
2018-12-06T13:26:58.752Z,17.20
2018-12-06T13:29:27.773Z,17.20
2018-12-06T13:31:56.913Z,17.30
2018-12-06T13:34:27.000Z,17.30
2018-12-06T13:36:57.600Z,17.20
2018-12-06T13:39:28.380Z,17.40
2018-12-06T13:41:59.291Z,17.90
2018-12-06T13:44:29.452Z,17.30
2018-12-06T13:46:59.658Z,17.50
2018-12-06T13:49:28.628Z,17.50
2018-12-06T13:51:58.581Z,17.50
2018-12-06T13:54:28.385Z,17.40
2018-12-06T13:57:01.741Z,17.50
2018-12-06T13:59:31.693Z,17.40
2018-12-06T14:02:01.845Z,17.50
2018-12-06T14:04:31.832Z,17.60
2018-12-06T14:07:00.829Z,17.70
2018-12-06T14:09:30.989Z,17.60
2018-12-06T14:12:03.557Z,17.70
2018-12-06T14:14:32.564Z,17.60
2018-12-06T14:17:02.625Z,17.60
2018-12-06T14:19:31.618Z,17.90
2018-12-06T14:22:05.018Z,17.90
2018-12-06T14:24:37.534Z,17.80
2018-12-06T14:27:07.341Z,17.80
2018-12-06T14:29:37.222Z,17.80
2018-12-06T14:32:06.289Z,17.80
2018-12-06T14:34:36.164Z,18.50
2018-12-06T14:37:06.387Z,17.90
2018-12-06T14:39:37.310Z,17.70
2018-12-06T14:42:08.216Z,17.90
2018-12-06T14:44:37.276Z,17.90
2018-12-06T14:47:06.280Z,17.90
2018-12-06T14:49:36.478Z,17.90
2018-12-06T14:52:06.561Z,17.80
2018-12-06T14:54:36.799Z,18.00
2018-12-06T14:57:05.812Z,17.90
2018-12-06T14:59:34.608Z,18.30
2018-12-06T15:02:04.131Z,17.70
2018-12-06T15:04:33.630Z,17.70
2018-12-06T15:07:03.483Z,17.80
2018-12-06T15:09:32.504Z,17.80
2018-12-06T15:12:01.526Z,17.90
2018-12-06T15:14:30.528Z,18.00
2018-12-06T15:16:59.538Z,18.00
2018-12-06T15:19:28.641Z,18.00
2018-12-06T15:21:57.857Z,18.10
2018-12-06T15:24:26.863Z,18.10
2018-12-06T15:26:57.080Z,18.10
2018-12-06T15:29:26.226Z,18.10
2018-12-06T15:31:55.336Z,18.00
2018-12-06T15:34:25.245Z,18.10
2018-12-06T15:36:54.182Z,18.10
2018-12-06T15:39:23.290Z,18.10
2018-12-06T15:41:52.291Z,18.00
2018-12-06T15:44:21.255Z,18.00
2018-12-06T15:46:50.218Z,18.10
2018-12-06T15:49:19.223Z,18.00
2018-12-06T15:51:48.566Z,18.00
2018-12-06T15:54:18.112Z,18.20
2018-12-06T15:56:47.180Z,18.60
2018-12-06T15:59:16.092Z,19.20
2018-12-06T16:01:46.926Z,19.50
2018-12-06T16:04:16.053Z,20.90
2018-12-06T16:06:45.369Z,19.90
2018-12-06T16:09:14.690Z,19.90
2018-12-06T16:11:44.301Z,19.60
2018-12-06T16:14:17.578Z,19.80
2018-12-06T16:16:48.219Z,19.60
2018-12-06T16:19:19.902Z,19.70
2018-12-06T16:21:49.901Z,19.70
2018-12-06T16:24:19.089Z,19.60
2018-12-06T16:26:59.510Z,19.70
2018-12-06T16:29:31.389Z,19.60
2018-12-06T16:32:06.599Z,19.70
2018-12-06T16:34:35.706Z,19.70
2018-12-06T16:37:07.119Z,19.60
2018-12-06T16:39:39.697Z,19.60
2018-12-06T16:42:09.698Z,19.60
2018-12-06T16:44:43.275Z,19.30
2018-12-06T16:47:16.506Z,19.70
2018-12-06T16:49:46.404Z,19.70
2018-12-06T16:52:19.264Z,19.70
2018-12-06T16:54:52.619Z,19.70
2018-12-06T16:57:24.415Z,19.70
2018-12-06T16:59:54.932Z,19.60
2018-12-06T17:02:27.105Z,19.60
2018-12-06T17:04:59.001Z,19.70
2018-12-06T17:07:27.929Z,19.50
2018-12-06T17:09:57.672Z,19.20
2018-12-06T17:12:28.019Z,19.10
2018-12-06T17:14:57.110Z,18.80
2018-12-06T17:17:27.422Z,18.40
2018-12-06T17:19:57.283Z,18.00
2018-12-06T17:22:26.291Z,17.80
2018-12-06T17:24:55.441Z,17.70
2018-12-06T17:27:24.426Z,17.60
2018-12-06T17:29:53.595Z,17.30
2018-12-06T17:32:22.600Z,16.90
2018-12-06T17:34:53.096Z,17.00
2018-12-06T17:37:23.536Z,16.70
2018-12-06T17:39:53.526Z,16.90
2018-12-06T17:42:26.208Z,16.40
2018-12-06T17:44:55.294Z,16.20
2018-12-06T17:47:24.289Z,16.10
2018-12-06T17:49:53.398Z,16.10
2018-12-06T17:52:22.315Z,15.90
2018-12-06T17:54:51.839Z,15.40
2018-12-06T17:57:21.658Z,15.20
2018-12-06T17:59:50.741Z,15.40
2018-12-06T18:02:22.731Z,15.60
2018-12-06T18:04:51.968Z,16.00
2018-12-06T18:07:21.588Z,16.60
2018-12-06T18:09:50.614Z,16.70
2018-12-06T18:12:21.744Z,16.90
2018-12-06T18:14:51.487Z,16.80
2018-12-06T18:17:21.352Z,16.70
2018-12-06T18:19:50.325Z,17.40
2018-12-06T18:22:19.366Z,17.10
2018-12-06T18:24:49.081Z,17.40
2018-12-06T18:27:19.393Z,17.60
2018-12-06T18:29:48.422Z,17.80
2018-12-06T18:32:17.561Z,17.80
2018-12-06T18:34:46.656Z,17.90
2018-12-06T18:37:15.560Z,18.00
2018-12-06T18:39:44.765Z,18.00
2018-12-06T18:42:14.736Z,18.30
2018-12-06T18:44:43.738Z,18.20
2018-12-06T18:47:13.346Z,18.40
2018-12-06T18:49:43.626Z,18.40
2018-12-06T18:52:12.702Z,18.70
2018-12-06T18:54:41.716Z,18.70
2018-12-06T18:57:10.707Z,18.80
2018-12-06T18:59:39.715Z,18.90
2018-12-06T19:02:08.724Z,19.40
2018-12-06T19:04:37.844Z,19.10
2018-12-06T19:07:09.674Z,19.20
2018-12-06T19:09:38.937Z,19.30
2018-12-06T19:12:11.075Z,19.40
2018-12-06T19:14:40.957Z,19.50
2018-12-06T19:17:11.827Z,19.50
2018-12-06T19:19:42.124Z,19.70
2018-12-06T19:22:16.060Z,19.70
2018-12-06T19:24:45.021Z,19.80
2018-12-06T19:27:17.154Z,19.80
2018-12-06T19:29:47.338Z,19.80
2018-12-06T19:32:16.195Z,19.80
2018-12-06T19:34:45.652Z,19.80
2018-12-06T19:39:39.249Z,19.90
2018-12-06T19:42:08.257Z,19.80
2018-12-06T19:44:54.903Z,19.80
2018-12-06T19:47:23.964Z,20.00
2018-12-06T19:49:53.091Z,20.50
2018-12-06T19:52:22.266Z,20.00
2018-12-06T19:54:51.449Z,20.40
2018-12-06T19:57:20.427Z,19.90
2018-12-06T19:59:49.532Z,19.80
2018-12-06T20:02:18.314Z,19.80
2018-12-06T20:04:47.295Z,20.20
2018-12-06T20:07:16.272Z,20.20
2018-12-06T20:09:45.269Z,20.70
2018-12-06T20:12:14.273Z,20.30
2018-12-06T20:14:43.260Z,20.10
2018-12-06T20:17:12.308Z,20.30
2018-12-06T20:19:41.452Z,20.30
2018-12-06T20:22:10.565Z,20.40
2018-12-06T20:24:39.537Z,20.40
2018-12-06T20:27:08.450Z,20.10
2018-12-06T20:29:37.556Z,20.30
2018-12-06T20:32:06.766Z,20.30
2018-12-06T20:34:36.166Z,20.30
2018-12-06T20:37:05.230Z,20.00
2018-12-06T20:39:34.212Z,18.30
2018-12-06T20:42:03.232Z,18.20
2018-12-06T20:44:32.249Z,18.40
2018-12-06T20:47:01.265Z,18.50
2018-12-06T20:49:30.282Z,18.40
2018-12-06T20:51:59.284Z,18.40
2018-12-06T20:54:28.224Z,18.40
2018-12-06T20:56:57.182Z,18.30
2018-12-06T20:59:26.312Z,18.30
2018-12-06T21:01:55.315Z,18.30
2018-12-06T21:04:24.343Z,18.20
2018-12-06T21:06:53.565Z,18.20
2018-12-06T21:09:22.678Z,18.20
2018-12-06T21:11:51.794Z,18.10
2018-12-06T21:14:22.171Z,18.10
2018-12-06T21:16:51.346Z,18.10
2018-12-06T21:19:20.342Z,18.00
2018-12-06T21:21:49.457Z,18.00
2018-12-06T21:24:18.558Z,18.00
2018-12-06T21:26:47.560Z,17.90
2018-12-06T21:29:16.592Z,18.00
2018-12-06T21:31:45.578Z,17.80
2018-12-06T21:34:14.622Z,17.80
2018-12-06T21:36:43.600Z,17.80
2018-12-06T21:39:12.966Z,17.70
2018-12-06T21:41:41.941Z,17.70
2018-12-06T21:44:11.066Z,17.70
2018-12-06T21:46:40.246Z,17.70
2018-12-06T21:49:09.484Z,17.70
2018-12-06T21:51:38.481Z,17.70
2018-12-06T21:54:07.408Z,17.60
2018-12-06T21:56:36.695Z,17.60
2018-12-06T21:59:05.733Z,17.70
2018-12-06T22:01:34.707Z,17.60
2018-12-06T22:04:03.640Z,17.60
2018-12-06T22:06:32.656Z,17.50
2018-12-06T22:09:01.614Z,17.50
2018-12-06T22:11:31.222Z,17.50
2018-12-06T22:14:00.317Z,17.50
2018-12-06T22:16:29.318Z,17.50
2018-12-06T22:18:58.236Z,17.40
2018-12-06T22:21:27.238Z,17.40
2018-12-06T22:23:56.238Z,17.40
2018-12-06T22:26:25.502Z,17.40
2018-12-06T22:28:54.459Z,17.30
2018-12-06T22:31:23.475Z,17.30
2018-12-06T22:33:52.547Z,17.30
2018-12-06T22:36:21.510Z,17.30
2018-12-06T22:38:50.628Z,17.30
2018-12-06T22:41:19.624Z,17.30
2018-12-06T22:43:48.637Z,17.20
2018-12-06T22:46:17.783Z,17.30
2018-12-06T22:48:48.510Z,17.20
2018-12-06T22:51:24.214Z,17.70
2018-12-06T22:53:48.768Z,17.20
2018-12-06T22:56:18.201Z,17.20
2018-12-06T22:58:47.188Z,17.20
2018-12-06T23:01:18.255Z,17.10
2018-12-06T23:03:47.365Z,17.60
2018-12-06T23:06:16.373Z,17.00
2018-12-06T23:08:45.491Z,17.00
2018-12-06T23:11:14.511Z,17.00
2018-12-06T23:13:43.514Z,17.00
2018-12-06T23:16:12.591Z,17.60
2018-12-06T23:18:41.843Z,17.00
2018-12-06T23:21:10.961Z,17.00
2018-12-06T23:23:39.960Z,16.90
2018-12-06T23:26:09.565Z,16.90
2018-12-06T23:28:39.419Z,16.90
2018-12-06T23:31:08.434Z,16.90
2018-12-06T23:33:37.548Z,16.80
2018-12-06T23:36:06.544Z,16.90
2018-12-06T23:38:35.554Z,16.80
2018-12-06T23:41:05.091Z,16.80
2018-12-06T23:43:34.106Z,16.80
2018-12-06T23:46:03.232Z,16.80
2018-12-06T23:48:32.419Z,16.80
2018-12-06T23:51:12.191Z,16.80
2018-12-06T23:53:41.087Z,16.80
2018-12-06T23:56:10.090Z,16.80
2018-12-06T23:58:39.104Z,16.70
